Time;durP1;ratioP1;P1;durP2;ratioP2;P2;SDS_P1;SDS_P2;PMS_P1;PMS_P2;Temp;Humidity;BMP_temperature;BMP_pressure;BME280_temperature;BME280_humidity;BME280_pressure;Samples;Min_cycle;Max_cycle;Signal;HPM_P1;HPM_P2
2024/03/10 00:00:30;;;;;;;;;;;8.00;1.00;;;;;;5103704;28;20007;-75
2024/03/10 00:02:56;;;;;;;;;;;8.00;1.00;;;;;;5096584;28;19912;-75
2024/03/10 00:05:34;;;;;;;;;;;8.00;1.00;;;;;;5089397;28;19920;-76
2024/03/10 00:08:04;;;;;;;;;;;8.00;1.00;;;;;;5101117;28;20359;-75
2024/03/10 00:10:37;;;;;;;;;;;8.00;1.00;;;;;;5116569;28;19911;-75
2024/03/10 00:13:03;;;;;;;;;;;8.00;1.00;;;;;;5113061;28;20383;-75
2024/03/10 00:15:33;;;;;;;;;;;8.00;1.00;;;;;;5088107;28;19923;-77
2024/03/10 00:18:09;;;;;;;;;;;8.00;1.00;;;;;;5099410;28;19927;-75
2024/03/10 00:20:35;;;;;;;;;;;7.90;1.00;;;;;;5104396;28;20299;-75
2024/03/10 00:23:01;;;;;;;;;;;7.90;1.00;;;;;;5105804;28;19912;-75
2024/03/10 00:25:27;;;;;;;;;;;8.00;1.00;;;;;;5095257;28;19908;-75
2024/03/10 00:28:21;;;;;;;;;;;8.00;1.00;;;;;;5096110;28;19915;-75
2024/03/10 00:31:03;;;;;;;;;;;7.90;1.00;;;;;;5106531;28;19919;-75
2024/03/10 00:33:37;;;;;;;;;;;7.90;1.00;;;;;;5084187;28;19943;-75
2024/03/10 00:36:05;;;;;;;;;;;7.80;1.00;;;;;;5088858;28;19916;-75
2024/03/10 00:38:45;;;;;;;;;;;7.80;1.00;;;;;;5114586;28;19953;-75
2024/03/10 00:41:27;;;;;;;;;;;7.80;1.00;;;;;;5096097;28;19961;-75
2024/03/10 00:43:57;;;;;;;;;;;7.70;1.00;;;;;;5082687;28;19950;-75
2024/03/10 00:46:23;;;;;;;;;;;7.70;1.00;;;;;;5100689;28;19915;-75
2024/03/10 00:48:49;;;;;;;;;;;7.60;1.00;;;;;;5115041;28;19960;-75
2024/03/10 00:51:15;;;;;;;;;;;7.50;1.00;;;;;;5104284;28;19915;-75
2024/03/10 00:53:51;;;;;;;;;;;7.50;1.00;;;;;;5090850;28;19998;-75
2024/03/10 00:56:19;;;;;;;;;;;7.40;1.00;;;;;;5091082;28;19916;-75
2024/03/10 00:58:51;;;;;;;;;;;7.40;1.00;;;;;;5095514;28;19908;-75
2024/03/10 01:01:45;;;;;;;;;;;7.20;1.00;;;;;;5103402;28;19918;-76
2024/03/10 01:04:15;;;;;;;;;;;7.20;1.00;;;;;;5104635;28;19908;-75
2024/03/10 01:06:45;;;;;;;;;;;7.00;1.00;;;;;;5117688;27;19912;-76
2024/03/10 01:09:18;;;;;;;;;;;7.00;1.00;;;;;;5094270;28;19919;-76
2024/03/10 01:11:47;;;;;;;;;;;6.90;1.00;;;;;;5094403;28;19919;-76
2024/03/10 01:14:17;;;;;;;;;;;6.80;1.00;;;;;;5094692;28;19913;-75
2024/03/10 01:16:42;;;;;;;;;;;6.70;1.00;;;;;;5081074;28;20405;-75
2024/03/10 01:19:11;;;;;;;;;;;6.70;1.00;;;;;;5081217;28;19909;-75
2024/03/10 01:21:37;;;;;;;;;;;6.70;1.00;;;;;;5082490;28;19927;-75
2024/03/10 01:24:03;;;;;;;;;;;6.70;1.00;;;;;;5098105;28;19912;-76
2024/03/10 01:26:29;;;;;;;;;;;6.70;1.00;;;;;;5098102;28;20260;-75
2024/03/10 01:29:09;;;;;;;;;;;6.60;1.00;;;;;;5101437;28;19912;-75
2024/03/10 01:31:35;;;;;;;;;;;6.60;1.00;;;;;;5095192;28;19919;-75
2024/03/10 01:34:01;;;;;;;;;;;6.60;1.00;;;;;;5094726;28;19908;-75
2024/03/10 01:36:26;;;;;;;;;;;6.50;1.00;;;;;;5094758;28;19912;-75
2024/03/10 01:38:52;;;;;;;;;;;6.50;1.00;;;;;;5101164;28;19962;-75
2024/03/10 01:41:22;;;;;;;;;;;6.50;1.00;;;;;;5085809;28;20263;-75
2024/03/10 01:43:50;;;;;;;;;;;6.50;1.00;;;;;;5091346;28;20393;-75
2024/03/10 01:46:16;;;;;;;;;;;6.50;1.00;;;;;;5107383;28;19963;-75
2024/03/10 01:48:52;;;;;;;;;;;6.50;1.00;;;;;;5111107;28;19974;-75
2024/03/10 01:51:18;;;;;;;;;;;6.50;1.00;;;;;;5094930;28;19908;-75
2024/03/10 01:53:45;;;;;;;;;;;6.50;1.00;;;;;;5080923;28;19958;-75
2024/03/10 01:56:22;;;;;;;;;;;6.50;1.00;;;;;;5094730;28;19991;-75
2024/03/10 01:58:52;;;;;;;;;;;6.50;1.00;;;;;;5074772;28;19954;-75
2024/03/10 02:01:18;;;;;;;;;;;6.40;1.00;;;;;;5088483;28;20386;-75
2024/03/10 02:03:44;;;;;;;;;;;6.40;1.00;;;;;;5086773;28;19909;-75
2024/03/10 02:06:21;;;;;;;;;;;6.40;1.00;;;;;;5093956;28;19911;-75
2024/03/10 02:08:47;;;;;;;;;;;6.40;1.00;;;;;;5110663;28;20003;-75
2024/03/10 02:11:13;;;;;;;;;;;6.30;1.00;;;;;;5099780;28;19950;-75
2024/03/10 02:13:40;;;;;;;;;;;6.30;1.00;;;;;;5092394;28;19914;-75
2024/03/10 02:16:06;;;;;;;;;;;6.30;1.00;;;;;;5094160;28;19916;-75
2024/03/10 02:18:34;;;;;;;;;;;6.30;1.00;;;;;;5085475;28;19920;-75
2024/03/10 02:21:00;;;;;;;;;;;6.20;1.00;;;;;;5087988;28;19912;-75
2024/03/10 02:23:35;;;;;;;;;;;6.20;1.00;;;;;;5100356;28;19951;-75
2024/03/10 02:26:10;;;;;;;;;;;6.30;1.00;;;;;;5094274;28;19912;-75
2024/03/10 02:28:57;;;;;;;;;;;6.20;1.00;;;;;;5094647;28;19912;-75
2024/03/10 02:48:33;;;;;;;;;;;6.20;1.00;;;;;;5098004;28;19915;-75
2024/03/10 02:50:59;;;;;;;;;;;6.30;1.00;;;;;;5088833;28;19912;-75
2024/03/10 02:53:25;;;;;;;;;;;6.30;1.00;;;;;;5086813;28;19961;-75
2024/03/10 02:55:52;;;;;;;;;;;6.30;1.00;;;;;;5097088;28;20003;-75
2024/03/10 02:58:17;;;;;;;;;;;6.30;1.00;;;;;;5101323;28;19912;-75
2024/03/10 03:00:47;;;;;;;;;;;6.30;1.00;;;;;;5089180;28;19920;-75
2024/03/10 03:03:13;;;;;;;;;;;6.30;1.00;;;;;;5080417;28;19939;-75
2024/03/10 03:05:39;;;;;;;;;;;6.30;1.00;;;;;;5111922;28;20332;-76
2024/03/10 03:08:05;;;;;;;;;;;6.30;1.00;;;;;;5106343;28;19920;-75
2024/03/10 03:10:31;;;;;;;;;;;6.30;1.00;;;;;;5115734;28;19933;-75
2024/03/10 03:12:56;;;;;;;;;;;6.30;1.00;;;;;;5101346;28;20275;-75
2024/03/10 03:15:23;;;;;;;;;;;6.30;1.00;;;;;;5087959;28;19908;-76
2024/03/10 03:18:09;;;;;;;;;;;6.30;1.00;;;;;;5104779;28;20344;-77
2024/03/10 03:20:39;;;;;;;;;;;6.30;1.00;;;;;;5097438;28;19912;-77
2024/03/10 03:23:06;;;;;;;;;;;6.30;1.00;;;;;;5083966;28;19916;-76
2024/03/10 03:25:53;;;;;;;;;;;6.30;1.00;;;;;;5103352;28;19948;-77
2024/03/10 03:28:34;;;;;;;;;;;6.30;1.00;;;;;;5096299;28;19908;-77
2024/03/10 03:30:59;;;;;;;;;;;6.20;1.00;;;;;;5097539;28;19912;-75
2024/03/10 03:33:34;;;;;;;;;;;6.20;1.00;;;;;;5096665;28;19999;-75
2024/03/10 03:36:00;;;;;;;;;;;6.10;1.00;;;;;;5082415;28;19912;-75
2024/03/10 03:38:34;;;;;;;;;;;6.10;1.00;;;;;;5101495;28;19916;-75
2024/03/10 03:41:09;;;;;;;;;;;6.20;1.00;;;;;;5084390;28;19908;-75
2024/03/10 03:43:40;;;;;;;;;;;6.20;1.00;;;;;;5097209;28;20021;-75
2024/03/10 03:46:05;;;;;;;;;;;6.40;1.00;;;;;;5097137;28;20000;-76
2024/03/10 03:48:40;;;;;;;;;;;6.40;1.00;;;;;;5096514;28;19947;-76
2024/03/10 03:51:16;;;;;;;;;;;6.50;1.00;;;;;;5086412;28;19917;-76
2024/03/10 03:53:44;;;;;;;;;;;6.50;1.00;;;;;;5095057;28;20279;-76
2024/03/10 03:59:22;;;;;;;;;;;6.50;1.00;;;;;;5086963;28;19916;-76
2024/03/10 04:02:16;;;;;;;;;;;6.70;1.00;;;;;;5141818;27;20511;-76
2024/03/10 04:04:44;;;;;;;;;;;6.70;1.00;;;;;;5082949;28;19999;-76
2024/03/10 04:07:09;;;;;;;;;;;6.80;1.00;;;;;;5105368;28;19918;-76
2024/03/10 04:09:45;;;;;;;;;;;6.80;1.00;;;;;;5096688;28;19999;-77
2024/03/10 04:12:16;;;;;;;;;;;6.90;1.00;;;;;;5096338;28;19908;-77
2024/03/10 04:14:58;;;;;;;;;;;6.90;1.00;;;;;;5086321;28;19991;-76
2024/03/10 04:17:52;;;;;;;;;;;6.90;1.00;;;;;;5097032;28;19920;-76
2024/03/10 04:20:28;;;;;;;;;;;6.90;1.00;;;;;;5086604;28;19930;-76
2024/03/10 04:23:10;;;;;;;;;;;6.90;1.00;;;;;;5087902;28;19912;-76
2024/03/10 04:25:36;;;;;;;;;;;6.90;1.00;;;;;;5084848;28;19923;-77
2024/03/10 04:28:10;;;;;;;;;;;6.90;1.00;;;;;;5088684;28;19917;-76
2024/03/10 04:30:51;;;;;;;;;;;6.90;1.00;;;;;;5077650;28;19995;-78
2024/03/10 04:33:22;;;;;;;;;;;6.90;1.00;;;;;;5085091;28;20003;-77
2024/03/10 04:35:52;;;;;;;;;;;6.80;1.00;;;;;;5083549;28;20294;-77
2024/03/10 04:38:23;;;;;;;;;;;6.90;1.00;;;;;;5102507;28;19966;-77
2024/03/10 04:40:49;;;;;;;;;;;6.90;1.00;;;;;;5080921;28;20317;-77
2024/03/10 04:43:16;;;;;;;;;;;6.80;1.00;;;;;;5090499;28;19938;-76
2024/03/10 04:45:41;;;;;;;;;;;6.80;1.00;;;;;;5095461;28;20025;-78
2024/03/10 04:48:11;;;;;;;;;;;6.80;1.00;;;;;;5095474;28;20501;-76
2024/03/10 04:50:41;;;;;;;;;;;6.70;1.00;;;;;;5075451;28;20002;-76
2024/03/10 04:53:22;;;;;;;;;;;6.70;1.00;;;;;;5087985;28;19915;-76
2024/03/10 04:56:04;;;;;;;;;;;6.60;1.00;;;;;;5086340;28;19912;-76
2024/03/10 04:58:34;;;;;;;;;;;6.60;1.00;;;;;;5103272;28;19916;-76
2024/03/10 05:01:00;;;;;;;;;;;6.60;1.00;;;;;;5100697;28;20363;-74
2024/03/10 05:03:28;;;;;;;;;;;6.60;1.00;;;;;;5095595;28;19938;-74
2024/03/10 05:05:58;;;;;;;;;;;6.70;1.00;;;;;;5094837;28;19908;-75
2024/03/10 05:08:23;;;;;;;;;;;6.70;1.00;;;;;;5096338;28;19957;-75
2024/03/10 05:10:59;;;;;;;;;;;6.70;1.00;;;;;;5075080;28;19909;-75
2024/03/10 05:13:38;;;;;;;;;;;6.70;1.00;;;;;;5082436;28;19999;-75
2024/03/10 05:16:04;;;;;;;;;;;6.60;1.00;;;;;;5094270;28;20281;-75
2024/03/10 05:18:31;;;;;;;;;;;6.70;1.00;;;;;;5086526;28;19913;-75
2024/03/10 05:20:58;;;;;;;;;;;6.60;1.00;;;;;;5091827;28;20024;-75
2024/03/10 05:23:40;;;;;;;;;;;6.50;1.00;;;;;;5088673;28;19919;-75
2024/03/10 05:26:10;;;;;;;;;;;6.60;1.00;;;;;;5082650;28;19935;-75
2024/03/10 05:28:35;;;;;;;;;;;6.60;1.00;;;;;;5093825;28;19916;-75
2024/03/10 05:31:30;;;;;;;;;;;6.50;1.00;;;;;;5090487;28;19916;-78
2024/03/10 05:34:21;;;;;;;;;;;6.50;1.00;;;;;;5091025;28;20345;-76
2024/03/10 05:36:47;;;;;;;;;;;6.40;1.00;;;;;;5095246;28;20014;-77
2024/03/10 05:39:16;;;;;;;;;;;6.40;1.00;;;;;;5094259;28;19952;-77
2024/03/10 05:41:42;;;;;;;;;;;6.30;1.00;;;;;;5081442;28;19913;-77
2024/03/10 05:44:10;;;;;;;;;;;6.30;1.00;;;;;;5080753;28;19958;-77
2024/03/10 05:46:41;;;;;;;;;;;6.30;1.00;;;;;;5084048;28;19999;-77
2024/03/10 05:49:10;;;;;;;;;;;6.30;1.00;;;;;;5107400;28;20275;-77
2024/03/10 05:51:35;;;;;;;;;;;6.30;1.00;;;;;;5079918;28;19923;-76
2024/03/10 05:54:03;;;;;;;;;;;6.20;1.00;;;;;;5073831;28;19908;-77
2024/03/10 05:56:28;;;;;;;;;;;6.20;1.00;;;;;;5088613;28;20002;-76
2024/03/10 05:58:54;;;;;;;;;;;6.10;1.00;;;;;;5106616;28;20398;-76
2024/03/10 06:01:23;;;;;;;;;;;6.10;1.00;;;;;;5093743;28;19908;-75
2024/03/10 06:03:51;;;;;;;;;;;6.10;1.00;;;;;;5082993;28;19908;-75
2024/03/10 06:06:17;;;;;;;;;;;6.00;1.00;;;;;;5087125;28;19912;-75
2024/03/10 06:08:43;;;;;;;;;;;6.00;1.00;;;;;;5085583;28;19920;-75
2024/03/10 06:11:11;;;;;;;;;;;6.00;1.00;;;;;;5073331;28;19908;-75
2024/03/10 06:14:04;;;;;;;;;;;5.90;1.00;;;;;;5083133;28;19915;-75
2024/03/10 06:16:40;;;;;;;;;;;5.90;1.00;;;;;;5090727;28;19967;-76
2024/03/10 06:27:46;;;;;;;;;;;6.00;1.00;;;;;;5090660;28;19962;-79
2024/03/10 06:33:35;;;;;;;;;;;6.10;1.00;;;;;;5092443;28;20341;-75
2024/03/10 06:36:08;;;;;;;;;;;6.20;1.00;;;;;;5096765;28;19912;-75
2024/03/10 06:38:41;;;;;;;;;;;6.30;1.00;;;;;;5106947;28;19915;-76
2024/03/10 06:41:07;;;;;;;;;;;6.40;1.00;;;;;;5075790;28;19916;-75
2024/03/10 06:43:53;;;;;;;;;;;6.50;1.00;;;;;;5085567;28;19909;-75
2024/03/10 06:46:22;;;;;;;;;;;6.60;1.00;;;;;;5096369;28;20371;-76
2024/03/10 06:48:52;;;;;;;;;;;6.70;1.00;;;;;;5077464;28;19999;-75
2024/03/10 06:51:19;;;;;;;;;;;6.70;1.00;;;;;;5093521;28;20061;-75
2024/03/10 06:53:58;;;;;;;;;;;6.80;1.00;;;;;;5084098;28;19934;-75
2024/03/10 06:56:28;;;;;;;;;;;6.90;1.00;;;;;;5083184;28;19940;-75
2024/03/10 06:58:58;;;;;;;;;;;6.90;1.00;;;;;;5078138;28;19909;-75
2024/03/10 07:02:00;;;;;;;;;;;7.00;1.00;;;;;;5078421;28;19931;-77
2024/03/10 07:04:40;;;;;;;;;;;7.00;1.00;;;;;;5089652;28;20371;-77
2024/03/10 07:07:08;;;;;;;;;;;7.10;1.00;;;;;;5081135;28;20366;-78
2024/03/10 07:09:35;;;;;;;;;;;7.20;1.00;;;;;;5089735;28;19915;-77
2024/03/10 07:12:03;;;;;;;;;;;7.20;1.00;;;;;;5090560;28;20417;-78
2024/03/10 07:14:29;;;;;;;;;;;7.30;1.00;;;;;;5073395;28;19908;-78
2024/03/10 07:16:58;;;;;;;;;;;7.40;1.00;;;;;;5081922;28;19928;-77
2024/03/10 07:19:52;;;;;;;;;;;7.50;1.00;;;;;;5084183;28;19921;-77
2024/03/10 07:22:17;;;;;;;;;;;7.60;1.00;;;;;;5068268;28;20279;-77
2024/03/10 07:24:43;;;;;;;;;;;7.70;1.00;;;;;;5104477;28;19913;-77
2024/03/10 07:27:13;;;;;;;;;;;7.80;1.00;;;;;;5103475;28;19913;-78
2024/03/10 07:29:46;;;;;;;;;;;7.90;1.00;;;;;;5065263;28;19908;-78
2024/03/10 07:32:11;;;;;;;;;;;8.10;1.00;;;;;;5088707;28;19966;-76
2024/03/10 07:34:46;;;;;;;;;;;8.20;1.00;;;;;;5106278;28;20380;-75
2024/03/10 07:37:11;;;;;;;;;;;8.40;1.00;;;;;;5105734;28;19916;-75
2024/03/10 07:39:40;;;;;;;;;;;8.40;1.00;;;;;;5093503;28;19913;-75
2024/03/10 07:42:05;;;;;;;;;;;8.50;1.00;;;;;;5098531;28;19912;-75
2024/03/10 07:44:31;;;;;;;;;;;8.60;1.00;;;;;;5097719;28;19911;-76
2024/03/10 07:47:10;;;;;;;;;;;8.70;1.00;;;;;;5075755;28;19908;-77
2024/03/10 07:49:35;;;;;;;;;;;8.70;1.00;;;;;;5093928;28;19955;-78
2024/03/10 07:52:01;;;;;;;;;;;8.80;1.00;;;;;;5100834;28;19948;-79
2024/03/10 07:54:26;;;;;;;;;;;8.90;1.00;;;;;;5088975;28;19912;-77
2024/03/10 07:57:17;;;;;;;;;;;9.00;1.00;;;;;;5089844;28;19916;-77
2024/03/10 07:59:46;;;;;;;;;;;9.00;1.00;;;;;;5092056;28;19908;-77
2024/03/10 08:02:11;;;;;;;;;;;9.00;1.00;;;;;;5104639;28;19919;-76
2024/03/10 08:04:38;;;;;;;;;;;9.00;1.00;;;;;;5092398;28;19912;-75
2024/03/10 08:07:04;;;;;;;;;;;9.00;1.00;;;;;;5089780;28;20303;-75
2024/03/10 08:09:34;;;;;;;;;;;9.00;1.00;;;;;;5085170;28;19908;-76
2024/03/10 08:12:02;;;;;;;;;;;9.10;1.00;;;;;;5058984;28;19924;-75
2024/03/10 08:14:28;;;;;;;;;;;9.10;1.00;;;;;;5084212;28;19916;-75
2024/03/10 08:17:10;;;;;;;;;;;9.20;1.00;;;;;;5105468;28;19975;-77
2024/03/10 08:19:36;;;;;;;;;;;9.30;1.00;;;;;;5083411;28;19996;-77
2024/03/10 08:22:02;;;;;;;;;;;9.50;1.00;;;;;;5095530;28;20367;-77
2024/03/10 08:24:28;;;;;;;;;;;9.70;1.00;;;;;;5098781;28;19947;-77
2024/03/10 08:26:53;;;;;;;;;;;9.80;1.00;;;;;;5098373;28;19912;-78
2024/03/10 08:29:19;;;;;;;;;;;9.80;1.00;;;;;;5108704;28;19912;-78
2024/03/10 08:31:45;;;;;;;;;;;9.80;1.00;;;;;;5089938;28;19920;-77
2024/03/10 08:34:11;;;;;;;;;;;9.70;1.00;;;;;;5100109;28;19912;-75
2024/03/10 08:36:39;;;;;;;;;;;9.70;1.00;;;;;;5095912;28;19915;-75
2024/03/10 08:39:08;;;;;;;;;;;9.60;1.00;;;;;;5096040;28;19998;-75
2024/03/10 08:41:34;;;;;;;;;;;9.50;1.00;;;;;;5095855;28;19915;-75
2024/03/10 08:44:22;;;;;;;;;;;9.40;1.00;;;;;;5088727;28;19991;-76
2024/03/10 08:46:52;;;;;;;;;;;9.40;1.00;;;;;;5082539;28;20252;-75
2024/03/10 08:49:46;;;;;;;;;;;9.50;1.00;;;;;;5099127;28;19912;-77
2024/03/10 08:52:16;;;;;;;;;;;9.80;1.00;;;;;;5106686;28;19908;-77
2024/03/10 08:54:59;;;;;;;;;;;9.80;1.00;;;;;;5081770;28;20028;-77
2024/03/10 08:57:27;;;;;;;;;;;9.90;1.00;;;;;;5095376;28;19916;-77
2024/03/10 08:59:54;;;;;;;;;;;10.10;1.00;;;;;;5093713;28;20424;-77
2024/03/10 09:02:19;;;;;;;;;;;10.20;1.00;;;;;;5097552;28;19927;-75
2024/03/10 09:04:45;;;;;;;;;;;10.20;1.00;;;;;;5093587;28;19912;-79
2024/03/10 09:07:10;;;;;;;;;;;10.20;1.00;;;;;;5094573;28;19915;-78
2024/03/10 09:09:46;;;;;;;;;;;10.40;1.00;;;;;;5076754;28;19919;-81
2024/03/10 09:12:12;;;;;;;;;;;10.40;1.00;;;;;;5105354;28;20010;-74
2024/03/10 09:14:37;;;;;;;;;;;10.60;1.00;;;;;;5106041;28;20418;-73
2024/03/10 09:17:03;;;;;;;;;;;10.70;1.00;;;;;;5102893;28;19924;-77
2024/03/10 09:19:29;;;;;;;;;;;10.80;1.00;;;;;;5086453;28;19916;-77
2024/03/10 09:21:55;;;;;;;;;;;10.90;1.00;;;;;;5085948;28;20409;-78
2024/03/10 09:24:20;;;;;;;;;;;11.00;1.00;;;;;;5080805;28;19908;-77
2024/03/10 09:26:47;;;;;;;;;;;11.20;1.00;;;;;;5080886;28;20283;-77
2024/03/10 09:29:14;;;;;;;;;;;11.30;1.00;;;;;;5064726;28;19920;-79
2024/03/10 09:31:55;;;;;;;;;;;11.40;1.00;;;;;;5081806;28;19912;-77
2024/03/10 09:34:24;;;;;;;;;;;11.60;1.00;;;;;;5062261;28;19913;-77
2024/03/10 09:36:50;;;;;;;;;;;11.70;1.00;;;;;;5054372;28;20004;-77
2024/03/10 09:39:16;;;;;;;;;;;11.80;1.00;;;;;;5071650;28;19908;-77
2024/03/10 09:41:58;;;;;;;;;;;12.00;1.00;;;;;;5074290;28;19915;-77
2024/03/10 09:44:35;;;;;;;;;;;12.10;1.00;;;;;;5037084;28;20334;-77
2024/03/10 09:47:18;;;;;;;;;;;12.10;1.00;;;;;;5055582;28;19959;-76
2024/03/10 09:49:47;;;;;;;;;;;12.30;1.00;;;;;;5066832;28;19951;-75
2024/03/10 09:52:12;;;;;;;;;;;12.30;1.00;;;;;;5088604;28;19951;-76
2024/03/10 09:54:38;;;;;;;;;;;12.40;1.00;;;;;;5076765;28;19967;-75
2024/03/10 09:57:05;;;;;;;;;;;12.70;1.00;;;;;;5066458;28;19916;-75
2024/03/10 09:59:50;;;;;;;;;;;12.80;1.00;;;;;;5064741;28;20344;-75
2024/03/10 10:02:28;;;;;;;;;;;13.00;1.00;;;;;;5069460;28;19916;-75
2024/03/10 10:04:58;;;;;;;;;;;13.10;1.00;;;;;;5092195;28;20425;-76
2024/03/10 10:07:40;;;;;;;;;;;13.20;1.00;;;;;;5065372;28;19909;-77
2024/03/10 10:10:28;;;;;;;;;;;13.20;1.00;;;;;;5058871;28;19913;-77
2024/03/10 10:12:54;;;;;;;;;;;13.30;1.00;;;;;;5080367;28;19948;-76
2024/03/10 10:15:26;;;;;;;;;;;13.30;1.00;;;;;;5074302;28;19947;-76
2024/03/10 10:17:54;;;;;;;;;;;13.30;1.00;;;;;;5064394;28;20435;-76
2024/03/10 10:23:35;;;;;;;;;;;13.50;1.00;;;;;;5104383;28;20294;-76
2024/03/10 10:26:10;;;;;;;;;;;13.60;1.00;;;;;;5114416;28;19920;-77
2024/03/10 10:29:11;;;;;;;;;;;13.80;1.00;;;;;;5108341;28;20050;-76
2024/03/10 10:31:40;;;;;;;;;;;14.00;1.00;;;;;;5094004;28;19918;-76
2024/03/10 10:34:06;;;;;;;;;;;14.00;1.00;;;;;;5112060;28;19907;-76
2024/03/10 10:36:46;;;;;;;;;;;14.00;1.00;;;;;;5114318;28;19912;-76
2024/03/10 10:39:29;;;;;;;;;;;14.10;1.00;;;;;;5091123;28;19908;-76
2024/03/10 10:42:07;;;;;;;;;;;14.00;1.00;;;;;;5083615;28;20001;-76
2024/03/10 10:44:46;;;;;;;;;;;13.90;1.00;;;;;;5084820;28;20359;-76
2024/03/10 10:47:14;;;;;;;;;;;13.70;1.00;;;;;;5073575;28;19908;-76
2024/03/10 10:49:39;;;;;;;;;;;13.80;1.00;;;;;;5074553;28;19913;-76
2024/03/10 10:52:11;;;;;;;;;;;13.80;1.00;;;;;;5103525;28;19908;-75
2024/03/10 10:54:38;;;;;;;;;;;13.80;1.00;;;;;;5092010;28;20351;-75
2024/03/10 10:57:25;;;;;;;;;;;13.90;1.00;;;;;;5073443;28;19916;-77
2024/03/10 10:59:52;;;;;;;;;;;14.00;1.00;;;;;;5093994;28;19916;-76
2024/03/10 11:02:28;;;;;;;;;;;14.20;1.00;;;;;;5114932;28;19919;-76
2024/03/10 11:04:58;;;;;;;;;;;14.30;1.00;;;;;;5101925;28;19908;-75
2024/03/10 11:07:35;;;;;;;;;;;14.40;1.00;;;;;;5096613;28;19908;-76
2024/03/10 11:10:24;;;;;;;;;;;14.50;1.00;;;;;;5093115;28;20310;-75
2024/03/10 11:13:06;;;;;;;;;;;14.60;1.00;;;;;;5080886;28;20339;-75
2024/03/10 11:15:33;;;;;;;;;;;14.60;1.00;;;;;;5058678;28;19908;-75
2024/03/10 11:18:22;;;;;;;;;;;14.60;1.00;;;;;;5072053;28;19952;-75
2024/03/10 11:20:48;;;;;;;;;;;14.60;1.00;;;;;;5068589;28;20419;-75
2024/03/10 11:23:15;;;;;;;;;;;14.70;1.00;;;;;;5085154;28;19919;-76
2024/03/10 11:26:01;;;;;;;;;;;14.80;1.00;;;;;;5081898;28;20368;-76
2024/03/10 11:28:52;;;;;;;;;;;15.00;1.00;;;;;;5074830;28;19920;-76
2024/03/10 11:31:23;;;;;;;;;;;15.10;1.00;;;;;;5079447;28;20428;-76
2024/03/10 11:33:53;;;;;;;;;;;15.10;1.00;;;;;;5080585;28;19932;-75
2024/03/10 11:36:33;;;;;;;;;;;14.90;1.00;;;;;;5058299;28;19944;-75
2024/03/10 11:39:04;;;;;;;;;;;15.00;1.00;;;;;;5058742;28;19927;-75
2024/03/10 11:41:52;;;;;;;;;;;15.10;1.00;;;;;;5076610;28;19912;-75
2024/03/10 11:44:18;;;;;;;;;;;15.20;1.00;;;;;;5083883;28;19940;-75
2024/03/10 11:46:44;;;;;;;;;;;15.10;1.00;;;;;;5067904;28;19912;-76
2024/03/10 11:49:12;;;;;;;;;;;15.10;1.00;;;;;;5075497;28;20240;-75
2024/03/10 11:51:46;;;;;;;;;;;15.00;1.00;;;;;;5075710;28;19909;-75
2024/03/10 11:54:36;;;;;;;;;;;15.00;1.00;;;;;;5094811;28;19965;-75
2024/03/10 11:57:02;;;;;;;;;;;15.00;1.00;;;;;;5078745;28;19919;-75
2024/03/10 11:59:29;;;;;;;;;;;15.10;1.00;;;;;;5076709;28;19935;-75
2024/03/10 12:05:22;;;;;;;;;;;15.20;1.00;;;;;;5079417;28;19958;-75
2024/03/10 12:08:10;;;;;;;;;;;15.20;1.00;;;;;;5100255;28;20008;-76
2024/03/10 12:11:12;;;;;;;;;;;15.40;1.00;;;;;;5104851;28;19912;-78
2024/03/10 12:13:46;;;;;;;;;;;15.40;1.00;;;;;;5034101;28;19913;-77
2024/03/10 12:16:16;;;;;;;;;;;15.70;1.00;;;;;;5019473;28;19943;-77
2024/03/10 12:18:46;;;;;;;;;;;15.70;1.00;;;;;;5033184;28;19999;-74
2024/03/10 12:21:18;;;;;;;;;;;15.80;1.00;;;;;;5035082;28;19913;-73
2024/03/10 12:23:52;;;;;;;;;;;15.90;1.00;;;;;;5021438;28;19937;-74
2024/03/10 12:26:22;;;;;;;;;;;16.00;1.00;;;;;;5032314;28;19909;-74
2024/03/10 12:28:58;;;;;;;;;;;16.10;1.00;;;;;;5033913;28;19915;-75
2024/03/10 12:31:26;;;;;;;;;;;16.00;1.00;;;;;;5033545;28;19913;-74
2024/03/10 12:34:04;;;;;;;;;;;16.10;1.00;;;;;;5033537;28;19913;-74
2024/03/10 12:36:33;;;;;;;;;;;16.20;1.00;;;;;;5034003;28;19909;-74
2024/03/10 12:38:59;;;;;;;;;;;16.40;1.00;;;;;;5020265;28;19913;-75
2024/03/10 12:41:24;;;;;;;;;;;16.40;1.00;;;;;;5032893;28;20280;-74
2024/03/10 12:43:55;;;;;;;;;;;16.30;1.00;;;;;;5023152;28;19913;-74
2024/03/10 12:46:23;;;;;;;;;;;16.40;1.00;;;;;;5039741;28;19909;-75
2024/03/10 12:48:49;;;;;;;;;;;16.50;1.00;;;;;;5094747;28;19909;-75
2024/03/10 12:51:15;;;;;;;;;;;16.70;1.00;;;;;;5096423;28;19931;-76
2024/03/10 12:53:46;;;;;;;;;;;17.00;1.00;;;;;;5109860;28;20036;-76
2024/03/10 12:56:28;;;;;;;;;;;17.00;1.00;;;;;;5104509;28;20020;-78
2024/03/10 12:58:58;;;;;;;;;;;17.10;1.00;;;;;;5095576;28;19912;-78
2024/03/10 13:01:31;;;;;;;;;;;17.40;1.00;;;;;;5095781;28;19908;-77
2024/03/10 13:03:58;;;;;;;;;;;17.20;1.00;;;;;;5108709;28;19919;-76
2024/03/10 13:06:24;;;;;;;;;;;17.10;1.00;;;;;;5099898;28;19919;-75
2024/03/10 13:08:50;;;;;;;;;;;17.20;1.00;;;;;;5080521;28;19912;-75
2024/03/10 13:11:16;;;;;;;;;;;17.30;1.00;;;;;;5104653;28;20247;-75
2024/03/10 13:13:43;;;;;;;;;;;17.50;1.00;;;;;;5087913;28;19908;-75
2024/03/10 13:16:09;;;;;;;;;;;17.40;1.00;;;;;;5089187;28;19959;-75
2024/03/10 13:18:34;;;;;;;;;;;17.50;1.00;;;;;;5086123;28;19959;-75
2024/03/10 13:21:00;;;;;;;;;;;17.20;1.00;;;;;;5109112;28;19912;-75
2024/03/10 13:23:26;;;;;;;;;;;17.10;1.00;;;;;;5093636;28;19915;-75
2024/03/10 13:25:52;;;;;;;;;;;17.00;1.00;;;;;;5094754;28;19947;-74
2024/03/10 13:28:22;;;;;;;;;;;17.10;1.00;;;;;;5094026;28;19912;-75
2024/03/10 13:30:48;;;;;;;;;;;17.10;1.00;;;;;;5096283;28;20367;-75
2024/03/10 13:33:14;;;;;;;;;;;17.10;1.00;;;;;;5073903;28;19915;-75
2024/03/10 13:35:40;;;;;;;;;;;17.10;1.00;;;;;;5077237;28;19908;-76
2024/03/10 13:38:16;;;;;;;;;;;17.00;1.00;;;;;;5096639;28;19955;-76
2024/03/10 13:40:42;;;;;;;;;;;17.00;1.00;;;;;;5098982;28;19977;-76
2024/03/10 13:43:10;;;;;;;;;;;16.90;1.00;;;;;;5103145;28;20367;-76
2024/03/10 13:45:36;;;;;;;;;;;16.90;1.00;;;;;;5094774;28;19927;-76
2024/03/10 13:48:04;;;;;;;;;;;16.80;1.00;;;;;;5094796;28;20345;-76
2024/03/10 13:50:35;;;;;;;;;;;16.80;1.00;;;;;;5098703;28;19912;-76
2024/03/10 13:53:09;;;;;;;;;;;16.70;1.00;;;;;;5093989;28;20260;-76
2024/03/10 13:55:40;;;;;;;;;;;16.40;1.00;;;;;;5074238;28;20356;-77
2024/03/10 13:58:16;;;;;;;;;;;;;;;;;;5087382;28;20005;-76
2024/03/10 14:00:44;;;;;;;;;;;16.20;1.00;;;;;;5081932;28;20409;-76
2024/03/10 14:03:10;;;;;;;;;;;15.90;1.00;;;;;;5088869;28;20543;-76
2024/03/10 14:05:36;;;;;;;;;;;15.70;1.00;;;;;;5094900;28;19974;-75
2024/03/10 14:08:02;;;;;;;;;;;15.70;1.00;;;;;;5125583;27;19962;-75
2024/03/10 14:10:29;;;;;;;;;;;15.50;1.00;;;;;;5074088;28;20296;-75
2024/03/10 14:12:55;;;;;;;;;;;15.50;1.00;;;;;;5089142;28;20283;-75
2024/03/10 14:15:20;;;;;;;;;;;15.50;1.00;;;;;;5106105;28;19933;-75
2024/03/10 14:18:05;;;;;;;;;;;15.50;1.00;;;;;;5098571;28;19971;-75
2024/03/10 14:20:47;;;;;;;;;;;15.50;1.00;;;;;;5098540;28;19951;-76
2024/03/10 14:23:40;;;;;;;;;;;15.50;1.00;;;;;;5089401;28;19909;-76
2024/03/10 14:26:10;;;;;;;;;;;15.40;1.00;;;;;;5058806;28;20012;-76
2024/03/10 14:28:46;;;;;;;;;;;15.40;1.00;;;;;;5076145;28;19914;-76
2024/03/10 14:31:12;;;;;;;;;;;15.30;1.00;;;;;;5076939;28;20395;-76
2024/03/10 14:33:38;;;;;;;;;;;15.20;1.00;;;;;;5092181;28;20073;-76
2024/03/10 14:36:10;;;;;;;;;;;15.20;1.00;;;;;;5083477;28;19912;-76
2024/03/10 14:38:42;;;;;;;;;;;15.20;1.00;;;;;;5085591;28;19919;-76
2024/03/10 14:41:08;;;;;;;;;;;15.20;1.00;;;;;;5100936;28;19912;-76
2024/03/10 14:43:40;;;;;;;;;;;15.10;1.00;;;;;;5084642;28;19954;-76
2024/03/10 14:46:06;;;;;;;;;;;15.00;1.00;;;;;;5084380;28;19913;-76
2024/03/10 14:48:34;;;;;;;;;;;14.80;1.00;;;;;;5096437;28;19966;-76
2024/03/10 14:51:04;;;;;;;;;;;14.80;1.00;;;;;;5083106;28;20002;-75
2024/03/10 14:53:33;;;;;;;;;;;14.80;1.00;;;;;;5087127;28;19911;-74
2024/03/10 14:56:11;;;;;;;;;;;14.70;1.00;;;;;;5089557;28;19995;-74
2024/03/10 14:58:47;;;;;;;;;;;14.70;1.00;;;;;;5097335;28;20379;-76
2024/03/10 15:01:30;;;;;;;;;;;14.60;1.00;;;;;;5103096;28;19912;-75
2024/03/10 15:03:56;;;;;;;;;;;14.60;1.00;;;;;;5097294;28;19908;-75
2024/03/10 15:06:25;;;;;;;;;;;14.60;1.00;;;;;;5101391;28;19920;-75
2024/03/10 15:08:53;;;;;;;;;;;14.60;1.00;;;;;;5091138;28;20332;-74
2024/03/10 15:11:46;;;;;;;;;;;14.60;1.00;;;;;;5092276;28;19908;-77
2024/03/10 15:14:12;;;;;;;;;;;14.60;1.00;;;;;;5097605;28;19915;-78
2024/03/10 15:16:54;;;;;;;;;;;14.60;1.00;;;;;;5065809;28;20322;-77
2024/03/10 15:28:37;;;;;;;;;;;14.40;1.00;;;;;;5082189;28;19915;-84
2024/03/10 15:31:11;;;;;;;;;;;14.40;1.00;;;;;;5096031;28;20248;-83
2024/03/10 15:33:46;;;;;;;;;;;14.40;1.00;;;;;;5096928;28;19916;-84
2024/03/10 15:42:21;;;;;;;;;;;14.30;1.00;;;;;;5086021;28;20350;-83
2024/03/10 15:47:56;;;;;;;;;;;14.30;1.00;;;;;;5097495;28;19919;-83
2024/03/10 15:53:28;;;;;;;;;;;14.30;1.00;;;;;;5095900;28;19919;-84
2024/03/10 15:58:57;;;;;;;;;;;14.20;1.00;;;;;;5098439;28;19923;-84
2024/03/10 16:01:40;;;;;;;;;;;14.20;1.00;;;;;;5088233;28;19911;-83
2024/03/10 16:04:24;;;;;;;;;;;14.20;1.00;;;;;;5104484;28;19955;-83
2024/03/10 16:06:53;;;;;;;;;;;14.20;1.00;;;;;;5096915;28;20007;-78